Time;durP1;ratioP1;P1;durP2;ratioP2;P2;SDS_P1;SDS_P2;PMS_P1;PMS_P2;Temp;Humidity;BMP_temperature;BMP_pressure;BME280_temperature;BME280_humidity;BME280_pressure;Samples;Min_cycle;Max_cycle;Signal;HPM_P1;HPM_P2
2023/04/06 00:01:38;;;;;;;16.40;13.73;;;9.10;99.20;;;;;;5052737;28;20182;-60
2023/04/06 00:04:04;;;;;;;17.05;14.40;;;9.10;99.40;;;;;;5052814;28;20531;-59
2023/04/06 00:06:31;;;;;;;17.40;13.65;;;9.00;99.60;;;;;;5052799;28;20267;-59
2023/04/06 00:08:58;;;;;;;16.02;14.32;;;9.00;99.90;;;;;;5052742;28;20200;-60
2023/04/06 00:11:23;;;;;;;15.65;13.05;;;9.00;99.90;;;;;;5051534;28;20176;-60
2023/04/06 00:13:49;;;;;;;16.20;13.60;;;9.00;99.90;;;;;;5052769;28;20218;-60
2023/04/06 00:16:15;;;;;;;15.98;13.38;;;8.90;99.90;;;;;;5052693;28;20245;-60
2023/04/06 00:18:41;;;;;;;16.20;13.13;;;8.90;99.90;;;;;;5052702;28;20202;-59
2023/04/06 00:21:06;;;;;;;16.80;13.13;;;8.90;99.90;;;;;;5052605;28;20183;-60
2023/04/06 00:23:32;;;;;;;14.23;12.35;;;8.90;99.90;;;;;;5054396;28;20512;-59
2023/04/06 00:25:58;;;;;;;15.02;12.57;;;9.00;99.90;;;;;;5056350;28;20656;-60
2023/04/06 00:28:26;;;;;;;15.48;12.32;;;9.00;99.90;;;;;;5056158;28;20182;-60
2023/04/06 00:30:55;;;;;;;16.08;12.90;;;9.00;99.90;;;;;;5055006;28;20224;-60
2023/04/06 00:33:22;;;;;;;15.93;12.52;;;9.00;99.90;;;;;;5056006;28;20189;-60
2023/04/06 00:35:48;;;;;;;16.27;12.80;;;9.00;99.90;;;;;;5055948;28;20190;-60
2023/04/06 00:38:14;;;;;;;15.25;12.50;;;9.00;99.90;;;;;;5055729;28;20179;-60
2023/04/06 00:40:41;;;;;;;15.38;12.60;;;9.00;99.90;;;;;;5055866;28;20183;-60
2023/04/06 00:43:08;;;;;;;16.02;12.88;;;9.00;99.90;;;;;;5055946;28;20199;-60
2023/04/06 00:45:34;;;;;;;14.32;12.05;;;9.00;99.90;;;;;;5055691;28;20187;-60
2023/04/06 00:48:01;;;;;;;15.63;13.02;;;9.00;99.90;;;;;;5056103;28;20587;-60
2023/04/06 00:50:27;;;;;;;14.60;12.27;;;9.00;99.90;;;;;;5055747;28;20183;-60
2023/04/06 00:52:57;;;;;;;15.77;11.85;;;9.00;99.90;;;;;;5055778;28;20262;-60
2023/04/06 00:55:23;;;;;;;15.10;12.35;;;9.00;99.90;;;;;;5055360;28;20182;-60
2023/04/06 00:57:50;;;;;;;15.65;12.20;;;9.00;99.90;;;;;;5055302;28;20183;-60
2023/04/06 01:00:16;;;;;;;15.35;12.75;;;9.00;99.90;;;;;;5055342;28;20603;-60
2023/04/06 01:02:42;;;;;;;15.57;11.60;;;8.90;99.90;;;;;;5055479;28;20191;-60
2023/04/06 01:05:08;;;;;;;14.80;12.35;;;8.90;99.90;;;;;;5055487;28;20183;-60
2023/04/06 01:07:34;;;;;;;14.15;12.27;;;8.90;99.90;;;;;;5055451;28;20167;-59
2023/04/06 01:10:00;;;;;;;15.45;11.90;;;8.90;99.90;;;;;;5055127;28;20182;-60
2023/04/06 01:12:25;;;;;;;14.52;11.80;;;8.80;99.90;;;;;;5055340;28;20668;-59
2023/04/06 01:14:51;;;;;;;13.75;11.90;;;8.80;99.90;;;;;;5055390;28;20524;-60
2023/04/06 01:17:17;;;;;;;14.60;11.75;;;8.70;99.90;;;;;;5055292;28;20226;-60
2023/04/06 01:19:44;;;;;;;13.98;12.45;;;8.60;99.90;;;;;;5055247;28;20628;-60
2023/04/06 01:22:17;;;;;;;13.80;11.68;;;8.60;99.90;;;;;;5055188;28;20544;-59
2023/04/06 01:24:43;;;;;;;15.35;11.00;;;8.50;99.90;;;;;;5054868;28;20234;-59
2023/04/06 01:27:09;;;;;;;14.27;11.23;;;8.50;99.90;;;;;;5055066;28;20172;-60
2023/04/06 01:29:35;;;;;;;14.90;10.85;;;8.40;99.90;;;;;;5054981;28;20180;-59
2023/04/06 01:32:01;;;;;;;12.48;11.18;;;8.40;99.90;;;;;;5054675;28;20171;-60
2023/04/06 01:34:26;;;;;;;16.33;12.15;;;8.30;99.90;;;;;;5053956;28;20178;-59
2023/04/06 01:36:52;;;;;;;14.93;11.45;;;8.30;99.90;;;;;;5054878;28;20225;-60
2023/04/06 01:39:19;;;;;;;15.60;11.70;;;8.30;99.90;;;;;;5054885;28;20211;-59
2023/04/06 01:41:46;;;;;;;15.40;11.27;;;8.20;99.90;;;;;;5054750;28;20229;-60
2023/04/06 01:44:12;;;;;;;15.20;11.90;;;8.20;99.90;;;;;;5054776;28;20621;-60
2023/04/06 01:46:38;;;;;;;12.10;10.75;;;8.20;99.90;;;;;;5054680;28;20225;-59
2023/04/06 01:49:04;;;;;;;15.52;11.38;;;8.10;99.90;;;;;;5054630;28;20171;-60
2023/04/06 01:51:30;;;;;;;13.50;11.45;;;8.10;99.90;;;;;;5054534;28;20184;-60
2023/04/06 01:53:56;;;;;;;14.80;11.85;;;8.10;99.90;;;;;;5054567;28;20175;-59
2023/04/06 01:56:22;;;;;;;15.65;11.55;;;8.10;99.90;;;;;;5054505;28;20183;-60
2023/04/06 01:58:47;;;;;;;15.88;11.13;;;8.10;99.90;;;;;;5054472;28;20203;-61
2023/04/06 02:01:13;;;;;;;15.88;11.70;;;8.10;99.90;;;;;;5054378;28;20254;-60
2023/04/06 02:03:39;;;;;;;13.00;11.40;;;8.10;99.90;;;;;;5054275;28;20199;-59
2023/04/06 02:06:04;;;;;;;15.30;11.43;;;8.10;99.90;;;;;;5054642;28;20638;-60
2023/04/06 02:08:30;;;;;;;14.65;11.60;;;8.10;99.90;;;;;;5054284;28;20179;-60
2023/04/06 02:10:56;;;;;;;13.05;11.25;;;8.10;99.90;;;;;;5053881;28;20554;-59
2023/04/06 02:13:21;;;;;;;15.70;11.27;;;8.10;99.90;;;;;;5052956;28;20214;-59
2023/04/06 02:15:47;;;;;;;17.15;11.32;;;8.10;99.90;;;;;;5054134;28;20164;-60
2023/04/06 02:18:13;;;;;;;14.60;11.50;;;8.10;99.90;;;;;;5054102;28;20581;-60
2023/04/06 02:20:38;;;;;;;14.85;11.93;;;8.00;99.90;;;;;;5054072;28;20176;-60
2023/04/06 02:23:04;;;;;;;16.80;10.80;;;8.00;99.90;;;;;;5053737;28;20207;-59
2023/04/06 02:25:30;;;;;;;15.07;11.73;;;8.00;99.90;;;;;;5054033;28;20191;-60
2023/04/06 02:27:55;;;;;;;15.95;11.93;;;8.00;99.90;;;;;;5053959;28;20175;-59
2023/04/06 02:30:21;;;;;;;12.90;11.23;;;7.90;99.90;;;;;;5053878;28;20555;-59
2023/04/06 02:32:47;;;;;;;13.60;11.00;;;7.90;99.90;;;;;;5053794;28;20179;-61
2023/04/06 02:35:12;;;;;;;17.13;12.27;;;7.90;99.90;;;;;;5053812;28;20182;-59
2023/04/06 02:37:38;;;;;;;14.50;12.45;;;7.90;99.90;;;;;;5053485;28;20214;-60
2023/04/06 02:40:06;;;;;;;14.93;11.70;;;7.80;99.90;;;;;;5053427;28;20176;-60
2023/04/06 02:42:32;;;;;;;15.52;12.27;;;7.80;99.90;;;;;;5053555;28;20297;-60
2023/04/06 02:44:57;;;;;;;14.93;12.25;;;7.80;99.90;;;;;;5053712;28;20186;-60
2023/04/06 02:47:23;;;;;;;14.77;11.38;;;7.80;99.90;;;;;;5053388;28;20175;-60
2023/04/06 02:49:49;;;;;;;16.27;11.20;;;7.80;99.90;;;;;;5053593;28;20224;-60
2023/04/06 02:52:14;;;;;;;15.73;11.82;;;7.70;99.90;;;;;;5053607;28;20612;-60
2023/04/06 02:54:40;;;;;;;13.63;11.63;;;7.80;99.90;;;;;;5053538;28;20248;-60
2023/04/06 02:57:06;;;;;;;14.23;11.55;;;7.80;99.90;;;;;;5053545;28;20185;-59
2023/04/06 02:59:32;;;;;;;17.27;11.98;;;7.80;99.90;;;;;;5053502;28;20605;-60
2023/04/06 03:01:58;;;;;;;16.27;12.60;;;7.80;99.90;;;;;;5053327;28;20525;-60
2023/04/06 03:04:25;;;;;;;14.52;11.13;;;7.80;99.90;;;;;;5053320;28;20294;-60
2023/04/06 03:06:51;;;;;;;14.80;10.73;;;7.70;99.90;;;;;;5053320;28;20190;-60
2023/04/06 03:09:17;;;;;;;14.82;11.00;;;7.70;99.90;;;;;;5053111;28;20171;-60
2023/04/06 03:11:42;;;;;;;16.15;12.43;;;7.70;99.90;;;;;;5053034;28;20262;-60
2023/04/06 03:14:08;;;;;;;16.52;12.60;;;7.80;99.90;;;;;;5053303;28;20182;-60
2023/04/06 03:16:34;;;;;;;13.80;12.10;;;7.70;99.90;;;;;;5053492;28;20202;-60
2023/04/06 03:19:00;;;;;;;18.80;12.82;;;7.80;99.90;;;;;;5053349;28;20199;-60
2023/04/06 03:21:25;;;;;;;15.80;12.85;;;7.80;99.90;;;;;;5053112;28;20567;-59
2023/04/06 03:23:51;;;;;;;17.13;13.18;;;7.80;99.90;;;;;;5053022;28;20647;-60
2023/04/06 03:26:17;;;;;;;15.98;13.38;;;7.80;99.90;;;;;;5053205;28;20167;-60
2023/04/06 03:28:43;;;;;;;16.67;13.38;;;7.90;99.90;;;;;;5053203;28;20175;-60
2023/04/06 03:31:08;;;;;;;17.35;13.45;;;7.90;99.90;;;;;;5052776;28;20179;-60
2023/04/06 03:33:34;;;;;;;16.15;13.10;;;7.90;99.90;;;;;;5053146;28;20178;-59
2023/04/06 03:36:00;;;;;;;15.05;11.90;;;7.80;99.90;;;;;;5052981;28;20612;-60
2023/04/06 03:38:25;;;;;;;16.13;12.57;;;7.90;99.90;;;;;;5053135;28;20621;-59
2023/04/06 03:40:51;;;;;;;15.43;13.40;;;7.80;99.90;;;;;;5053066;28;20220;-60
2023/04/06 03:43:17;;;;;;;16.42;13.75;;;7.90;99.90;;;;;;5052912;28;20288;-60
2023/04/06 03:45:42;;;;;;;17.10;12.82;;;7.90;99.90;;;;;;5052848;28;20194;-60
2023/04/06 03:48:08;;;;;;;18.10;14.93;;;7.90;99.90;;;;;;5053038;28;20182;-59
2023/04/06 03:50:34;;;;;;;17.50;13.73;;;7.90;99.90;;;;;;5052905;28;20178;-60
2023/04/06 03:53:02;;;;;;;16.58;14.40;;;7.90;99.90;;;;;;5035126;28;20270;-60
2023/04/06 03:55:28;;;;;;;18.13;13.45;;;7.90;99.90;;;;;;5052824;28;20211;-60
2023/04/06 03:57:54;;;;;;;16.88;13.40;;;7.90;99.90;;;;;;5053672;28;20199;-59
2023/04/06 04:00:20;;;;;;;17.63;14.60;;;8.00;99.90;;;;;;5056736;28;20526;-60
2023/04/06 04:02:45;;;;;;;18.90;14.82;;;7.90;99.90;;;;;;5056741;28;20260;-60
2023/04/06 04:05:11;;;;;;;23.10;14.95;;;7.90;99.90;;;;;;5056590;28;20179;-60
2023/04/06 04:07:37;;;;;;;23.92;14.82;;;7.90;99.90;;;;;;5056577;28;20625;-60
2023/04/06 04:10:03;;;;;;;18.20;14.20;;;7.90;99.90;;;;;;5056515;28;20205;-60
2023/04/06 04:12:28;;;;;;;17.23;14.15;;;8.00;99.90;;;;;;5056608;28;20593;-59
2023/04/06 04:14:54;;;;;;;16.88;14.98;;;8.00;99.90;;;;;;5056153;28;20247;-59
2023/04/06 04:17:21;;;;;;;17.42;13.82;;;7.90;99.90;;;;;;5056350;28;20639;-59
2023/04/06 04:19:46;;;;;;;17.02;15.23;;;7.90;99.90;;;;;;5056054;28;20265;-60
2023/04/06 04:22:12;;;;;;;16.55;13.15;;;8.00;99.90;;;;;;5056289;28;20632;-60
2023/04/06 04:24:38;;;;;;;19.80;14.13;;;8.00;99.90;;;;;;5055812;28;20234;-60
2023/04/06 04:27:04;;;;;;;16.90;15.25;;;7.90;99.90;;;;;;5056222;28;20172;-60
2023/04/06 04:29:30;;;;;;;17.20;14.00;;;8.00;99.90;;;;;;5056217;28;20171;-59
2023/04/06 04:31:56;;;;;;;17.25;15.25;;;7.90;99.90;;;;;;5056050;28;20178;-59
2023/04/06 04:34:24;;;;;;;19.98;16.00;;;8.00;99.90;;;;;;5056109;28;20176;-59
2023/04/06 04:36:51;;;;;;;22.65;16.30;;;8.00;99.90;;;;;;5056013;28;20536;-60
2023/04/06 04:39:16;;;;;;;20.00;15.60;;;8.00;99.90;;;;;;5055777;28;20627;-60
2023/04/06 04:41:42;;;;;;;18.52;14.75;;;8.00;99.90;;;;;;5056231;28;20180;-59
2023/04/06 04:44:08;;;;;;;20.75;15.73;;;8.10;99.90;;;;;;5055942;28;20183;-60
2023/04/06 04:46:33;;;;;;;20.00;16.75;;;8.00;99.90;;;;;;5055553;28;20179;-60
2023/04/06 04:48:59;;;;;;;19.17;15.52;;;8.10;99.90;;;;;;5055876;28;20175;-60
2023/04/06 04:51:25;;;;;;;18.23;15.25;;;8.00;99.90;;;;;;5055843;28;20255;-60
2023/04/06 04:53:50;;;;;;;19.38;16.52;;;8.00;99.90;;;;;;5055421;28;20229;-59
2023/04/06 04:56:16;;;;;;;19.85;16.25;;;8.00;99.90;;;;;;5054658;28;20589;-60
2023/04/06 04:58:42;;;;;;;18.42;15.48;;;8.00;99.90;;;;;;5055653;28;20171;-60
2023/04/06 05:01:08;;;;;;;19.67;16.50;;;8.10;99.90;;;;;;5055585;28;20579;-59
2023/04/06 05:03:35;;;;;;;18.63;15.55;;;8.10;99.90;;;;;;5055565;28;20548;-59
2023/04/06 05:06:01;;;;;;;21.10;17.23;;;8.10;99.90;;;;;;5055465;28;20176;-60
2023/04/06 05:08:26;;;;;;;23.08;17.55;;;8.10;99.90;;;;;;5054976;28;20201;-60
2023/04/06 05:10:52;;;;;;;20.75;16.58;;;8.10;99.90;;;;;;5055458;28;20203;-60
2023/04/06 05:13:18;;;;;;;22.33;17.27;;;8.10;99.90;;;;;;5055029;28;20678;-60
2023/04/06 05:15:44;;;;;;;19.58;16.95;;;8.10;99.90;;;;;;5055262;28;20198;-60
2023/04/06 05:18:13;;;;;;;20.23;16.83;;;8.10;99.90;;;;;;5055292;28;20176;-60
2023/04/06 05:20:39;;;;;;;20.08;17.58;;;8.20;99.90;;;;;;5055204;28;20232;-60
2023/04/06 05:23:04;;;;;;;22.08;18.83;;;8.20;99.90;;;;;;5054887;28;20203;-60
2023/04/06 05:25:31;;;;;;;21.38;17.75;;;8.10;99.90;;;;;;5055197;28;20286;-60
2023/04/06 05:27:57;;;;;;;21.63;16.55;;;8.20;99.90;;;;;;5055029;28;20171;-60
2023/04/06 05:30:23;;;;;;;22.77;18.27;;;8.20;99.90;;;;;;5054929;28;20643;-61
2023/04/06 05:32:50;;;;;;;19.73;17.45;;;8.30;99.90;;;;;;5054881;28;20253;-60
2023/04/06 05:35:17;;;;;;;23.08;18.25;;;8.30;99.90;;;;;;5054910;28;20198;-60
2023/04/06 05:37:43;;;;;;;20.85;17.90;;;8.30;99.90;;;;;;5054581;28;20806;-60
2023/04/06 05:40:09;;;;;;;22.92;17.73;;;8.30;99.90;;;;;;5054875;28;20182;-60
2023/04/06 05:42:45;;;;;;;23.40;17.70;;;8.40;99.90;;;;;;5054593;28;20207;-61
2023/04/06 05:45:16;;;;;;;22.88;18.75;;;8.40;99.90;;;;;;5054813;28;20637;-60
2023/04/06 05:47:42;;;;;;;21.73;18.88;;;8.50;99.90;;;;;;5054690;28;20164;-60
2023/04/06 05:50:08;;;;;;;21.55;18.33;;;8.40;99.90;;;;;;5053350;28;20195;-61
2023/04/06 05:52:34;;;;;;;23.27;18.17;;;8.50;99.90;;;;;;5054601;28;20229;-60
2023/04/06 05:55:00;;;;;;;24.70;18.88;;;8.60;99.90;;;;;;5054484;28;20171;-61
2023/04/06 05:57:26;;;;;;;22.50;18.52;;;8.50;99.90;;;;;;5054403;28;20178;-60
2023/04/06 05:59:52;;;;;;;20.30;17.50;;;8.60;99.90;;;;;;5054417;28;20533;-60
2023/04/06 06:02:20;;;;;;;20.75;18.50;;;8.60;99.90;;;;;;5054292;28;20195;-60
2023/04/06 06:04:46;;;;;;;21.88;17.08;;;8.80;99.90;;;;;;5054388;28;20183;-60
2023/04/06 06:07:12;;;;;;;21.85;19.27;;;8.70;99.90;;;;;;5054247;28;20221;-60
2023/04/06 06:09:37;;;;;;;21.92;19.60;;;8.70;99.90;;;;;;5054271;28;20564;-61
2023/04/06 06:12:03;;;;;;;22.95;20.38;;;8.60;99.90;;;;;;5054242;28;20194;-60
2023/04/06 06:14:29;;;;;;;23.00;20.05;;;8.70;99.90;;;;;;5054426;28;20175;-60
2023/04/06 06:16:55;;;;;;;22.35;20.05;;;8.70;99.90;;;;;;5054064;28;20179;-60
2023/04/06 06:19:21;;;;;;;23.73;20.58;;;8.70;99.90;;;;;;5054068;28;20187;-60
2023/04/06 06:21:46;;;;;;;22.83;20.38;;;8.60;99.90;;;;;;5053455;28;20172;-60
2023/04/06 06:24:12;;;;;;;23.35;20.23;;;8.60;99.90;;;;;;5053889;28;20257;-60
2023/04/06 06:26:39;;;;;;;22.52;19.58;;;8.60;99.90;;;;;;5053933;28;20175;-60
2023/04/06 06:29:05;;;;;;;22.85;20.45;;;8.60;99.90;;;;;;5053798;28;20260;-60
2023/04/06 06:31:31;;;;;;;25.15;20.30;;;8.50;99.90;;;;;;5053526;28;20579;-60
2023/04/06 06:33:57;;;;;;;24.92;19.83;;;8.60;99.90;;;;;;5054089;28;20187;-60
2023/04/06 06:36:22;;;;;;;23.60;21.08;;;8.50;99.90;;;;;;5053839;28;20178;-60
2023/04/06 06:38:48;;;;;;;24.13;18.15;;;8.50;99.90;;;;;;5053798;28;20525;-60
2023/04/06 06:41:14;;;;;;;22.90;20.48;;;8.50;99.90;;;;;;5053490;28;20175;-60
2023/04/06 06:43:40;;;;;;;23.48;19.55;;;8.50;99.90;;;;;;5053533;28;20211;-60
2023/04/06 06:46:06;;;;;;;25.75;19.88;;;8.50;99.90;;;;;;5053659;28;20225;-60
2023/04/06 06:48:31;;;;;;;23.38;19.73;;;8.60;99.90;;;;;;5053696;28;20257;-60
2023/04/06 06:50:57;;;;;;;23.10;20.73;;;8.60;99.90;;;;;;5053564;28;20171;-60
2023/04/06 06:53:23;;;;;;;25.00;20.27;;;8.60;99.90;;;;;;5053792;28;20566;-61
2023/04/06 06:55:49;;;;;;;23.65;18.90;;;8.60;99.90;;;;;;5053469;28;20246;-60
2023/04/06 06:58:17;;;;;;;23.02;20.52;;;8.70;99.90;;;;;;5053461;28;20270;-60
2023/04/06 07:00:43;;;;;;;23.52;20.02;;;8.70;99.90;;;;;;5053470;28;20175;-60
2023/04/06 07:03:09;;;;;;;24.70;20.55;;;8.70;99.90;;;;;;5053238;28;20229;-60
2023/04/06 07:05:35;;;;;;;21.48;19.02;;;8.70;99.90;;;;;;5053388;28;20628;-61
2023/04/06 07:08:00;;;;;;;22.20;19.83;;;8.80;99.90;;;;;;5053358;28;20163;-61
2023/04/06 07:10:26;;;;;;;23.38;18.77;;;8.80;99.90;;;;;;5053081;28;20624;-60
2023/04/06 07:12:52;;;;;;;20.60;18.50;;;8.80;99.90;;;;;;5053295;28;20258;-60
2023/04/06 07:15:18;;;;;;;22.58;18.27;;;8.80;99.90;;;;;;5052972;28;20268;-60
2023/04/06 07:17:46;;;;;;;21.80;17.63;;;8.90;99.90;;;;;;5052915;28;20175;-60
2023/04/06 07:20:12;;;;;;;20.30;17.90;;;8.90;99.90;;;;;;5052142;28;20207;-60
2023/04/06 07:22:39;;;;;;;20.60;16.45;;;8.90;99.90;;;;;;5053133;28;20254;-60
2023/04/06 07:25:05;;;;;;;18.05;16.17;;;8.90;99.90;;;;;;5053356;28;20225;-60
2023/04/06 07:27:31;;;;;;;18.50;16.20;;;9.00;99.90;;;;;;5053109;28;20182;-60
2023/04/06 07:29:57;;;;;;;17.40;15.38;;;9.00;99.90;;;;;;5053186;28;20164;-60
2023/04/06 07:32:22;;;;;;;16.90;15.20;;;9.10;99.90;;;;;;5052953;28;20525;-60
2023/04/06 07:34:48;;;;;;;16.00;13.88;;;9.20;99.90;;;;;;5057119;28;20263;-60
2023/04/06 07:37:14;;;;;;;16.27;14.00;;;9.20;99.90;;;;;;5057156;28;20185;-60
2023/04/06 07:39:40;;;;;;;16.08;13.48;;;9.20;99.90;;;;;;5057140;28;20223;-60
2023/04/06 07:42:06;;;;;;;15.20;12.57;;;9.30;99.90;;;;;;5056896;28;20222;-60
2023/04/06 07:44:31;;;;;;;14.73;12.77;;;9.30;99.90;;;;;;5056741;28;20237;-60
2023/04/06 07:46:57;;;;;;;14.57;13.02;;;9.30;99.90;;;;;;5057219;28;20564;-60
2023/04/06 07:49:23;;;;;;;14.38;12.57;;;9.30;99.90;;;;;;5056893;28;20214;-61
2023/04/06 07:51:49;;;;;;;15.27;12.60;;;9.40;99.90;;;;;;5056859;28;20178;-60
2023/04/06 07:54:15;;;;;;;14.10;12.25;;;9.50;99.90;;;;;;5057087;28;20173;-60
2023/04/06 07:56:40;;;;;;;12.88;11.57;;;9.50;99.90;;;;;;5056784;28;20176;-60
2023/04/06 07:59:06;;;;;;;12.32;10.88;;;9.50;99.90;;;;;;5056473;28;20175;-60
2023/04/06 08:01:32;;;;;;;11.18;9.85;;;9.50;99.90;;;;;;5056775;28;20182;-60
2023/04/06 08:03:58;;;;;;;11.95;10.75;;;9.50;99.90;;;;;;5055265;28;20211;-60
2023/04/06 08:06:24;;;;;;;11.82;10.60;;;9.50;99.90;;;;;;5056538;28;20187;-61
2023/04/06 08:08:50;;;;;;;10.50;9.38;;;9.50;99.90;;;;;;5056311;28;20171;-60
2023/04/06 08:11:15;;;;;;;10.52;9.48;;;9.40;99.90;;;;;;5056512;28;20172;-60
2023/04/06 08:13:41;;;;;;;10.18;8.45;;;9.40;99.90;;;;;;5056188;28;20530;-60
2023/04/06 08:16:07;;;;;;;10.73;9.05;;;9.40;99.90;;;;;;5056407;28;20186;-60
2023/04/06 08:18:32;;;;;;;10.52;9.43;;;9.50;99.90;;;;;;5056394;28;20179;-60
2023/04/06 08:20:58;;;;;;;9.15;8.25;;;9.50;99.90;;;;;;5056114;28;20656;-60
2023/04/06 08:23:24;;;;;;;10.05;8.85;;;9.40;99.90;;;;;;5055923;28;20281;-60
2023/04/06 08:25:50;;;;;;;10.02;8.85;;;9.50;99.90;;;;;;5055958;28;20222;-60
2023/04/06 08:28:15;;;;;;;10.32;8.52;;;9.30;99.90;;;;;;5056121;28;20186;-60
2023/04/06 08:30:42;;;;;;;9.25;8.32;;;9.30;99.90;;;;;;5055676;28;20282;-60
2023/04/06 08:33:09;;;;;;;10.20;8.65;;;9.30;99.90;;;;;;5055703;28;20225;-60
2023/04/06 08:35:35;;;;;;;9.15;8.07;;;9.40;99.90;;;;;;5055960;28;20182;-61
2023/04/06 08:38:00;;;;;;;9.73;8.65;;;9.40;99.90;;;;;;5055956;28;20171;-59
2023/04/06 08:40:27;;;;;;;9.30;8.30;;;9.50;99.90;;;;;;5055924;28;20198;-60
2023/04/06 08:42:55;;;;;;;10.05;7.53;;;9.50;99.90;;;;;;5055875;28;20211;-60
2023/04/06 08:45:21;;;;;;;9.02;8.13;;;9.40;99.90;;;;;;5055081;28;20628;-60
2023/04/06 08:47:49;;;;;;;9.15;8.25;;;9.40;99.90;;;;;;5055474;28;20692;-60
2023/04/06 08:50:16;;;;;;;8.57;7.63;;;9.40;99.90;;;;;;5055811;28;20194;-60
2023/04/06 08:52:45;;;;;;;9.07;8.00;;;9.60;99.90;;;;;;5055785;28;20270;-60
2023/04/06 08:55:11;;;;;;;10.80;8.68;;;9.70;99.90;;;;;;5055715;28;20163;-61
2023/04/06 08:57:37;;;;;;;10.02;7.93;;;9.70;99.90;;;;;;5055587;28;20177;-60
2023/04/06 09:00:04;;;;;;;8.85;7.95;;;9.70;99.90;;;;;;5055487;28;20179;-60
2023/04/06 09:02:30;;;;;;;9.23;8.30;;;9.70;99.90;;;;;;5055443;28;20538;-60
2023/04/06 09:04:57;;;;;;;8.55;7.57;;;9.60;99.90;;;;;;5055553;28;20270;-60
2023/04/06 09:07:23;;;;;;;8.40;7.60;;;9.60;99.90;;;;;;5054366;28;20174;-60
2023/04/06 09:09:51;;;;;;;9.50;8.20;;;9.60;99.90;;;;;;5055326;28;20625;-60
2023/04/06 09:12:27;;;;;;;10.60;8.85;;;9.60;99.90;;;;;;5055420;28;20184;-60
2023/04/06 09:14:53;;;;;;;9.75;8.52;;;9.60;99.90;;;;;;5055300;28;20570;-60
2023/04/06 09:17:27;;;;;;;9.10;8.20;;;9.70;99.90;;;;;;5055267;28;20263;-60
2023/04/06 09:19:53;;;;;;;8.85;7.95;;;9.70;99.90;;;;;;5055163;28;20183;-60
2023/04/06 09:22:20;;;;;;;9.70;8.70;;;9.70;99.90;;;;;;5055048;28;20207;-60
2023/04/06 09:24:50;;;;;;;9.80;8.77;;;9.70;99.90;;;;;;5055215;28;20332;-60
2023/04/06 09:27:16;;;;;;;9.73;8.73;;;9.60;99.90;;;;;;5055106;28;20166;-60
2023/04/06 09:29:43;;;;;;;9.35;8.32;;;9.70;99.90;;;;;;5055073;28;20213;-60
2023/04/06 09:32:16;;;;;;;9.95;8.80;;;9.70;99.90;;;;;;5054982;28;20182;-60
2023/04/06 09:34:42;;;;;;;10.32;8.95;;;9.80;99.90;;;;;;5054904;28;20175;-60
2023/04/06 09:37:18;;;;;;;10.43;9.27;;;9.60;99.90;;;;;;5054955;28;20175;-60
2023/04/06 09:39:45;;;;;;;11.50;9.18;;;9.70;99.90;;;;;;5054835;28;20167;-60
2023/04/06 09:42:22;;;;;;;10.80;8.90;;;9.70;99.90;;;;;;5054791;28;20276;-60
2023/04/06 09:44:48;;;;;;;11.70;9.80;;;9.70;99.90;;;;;;5054815;28;20163;-60
2023/04/06 09:47:16;;;;;;;10.05;8.95;;;9.70;99.90;;;;;;5054766;28;20209;-61
2023/04/06 09:49:44;;;;;;;11.85;9.18;;;9.80;99.90;;;;;;5054391;28;20252;-60
2023/04/06 09:52:12;;;;;;;9.82;8.82;;;10.00;99.90;;;;;;5054587;28;20655;-60
2023/04/06 09:54:38;;;;;;;10.15;8.80;;;10.10;99.90;;;;;;5054467;28;20175;-60
2023/04/06 09:57:08;;;;;;;9.30;8.38;;;10.20;99.90;;;;;;5053888;28;20183;-60
2023/04/06 09:59:42;;;;;;;10.43;8.90;;;10.10;99.90;;;;;;5054433;28;20225;-60
2023/04/06 10:02:24;;;;;;;11.77;9.50;;;10.20;99.90;;;;;;5054165;28;20679;-60
2023/04/06 10:04:58;;;;;;;10.57;9.48;;;10.00;99.90;;;;;;5054156;28;20635;-60
2023/04/06 10:07:25;;;;;;;10.27;9.18;;;10.10;99.90;;;;;;5054392;28;20163;-60
2023/04/06 10:09:54;;;;;;;9.70;8.70;;;10.10;99.90;;;;;;5054192;28;20177;-60
2023/04/06 10:12:20;;;;;;;10.68;8.82;;;10.00;99.90;;;;;;5054232;28;20179;-60
2023/04/06 10:14:45;;;;;;;9.38;8.45;;;10.00;99.90;;;;;;5054106;28;20220;-60
2023/04/06 10:17:11;;;;;;;10.52;9.43;;;10.00;99.90;;;;;;5054448;28;20262;-60
2023/04/06 10:19:53;;;;;;;10.27;9.15;;;10.10;99.90;;;;;;5054127;28;20186;-60
2023/04/06 10:22:29;;;;;;;10.57;9.35;;;10.10;99.90;;;;;;5054069;28;20280;-60
2023/04/06 10:24:55;;;;;;;11.40;9.73;;;10.00;99.90;;;;;;5053567;28;20356;-60
2023/04/06 10:27:30;;;;;;;10.50;9.40;;;10.00;99.90;;;;;;5053912;28;20273;-60
2023/04/06 10:30:06;;;;;;;11.07;9.30;;;9.90;99.90;;;;;;5053938;28;20206;-60
2023/04/06 10:32:37;;;;;;;11.02;9.38;;;10.00;99.90;;;;;;5053921;28;20178;-60
2023/04/06 10:35:15;;;;;;;10.68;9.45;;;10.00;99.90;;;;;;5053899;28;20541;-60
2023/04/06 10:38:01;;;;;;;9.85;8.85;;;9.90;99.90;;;;;;5053824;28;20167;-60
2023/04/06 10:40:28;;;;;;;9.73;8.80;;;9.90;99.90;;;;;;5053823;28;20202;-60
2023/04/06 10:42:55;;;;;;;10.35;9.35;;;9.80;99.90;;;;;;5053644;28;20215;-60
2023/04/06 10:45:25;;;;;;;11.23;10.07;;;9.90;99.90;;;;;;5053611;28;20179;-60
2023/04/06 10:47:53;;;;;;;11.00;9.90;;;9.90;99.90;;;;;;5053605;28;20167;-60
2023/04/06 10:50:20;;;;;;;10.57;9.57;;;9.80;99.90;;;;;;5053592;28;20175;-60
2023/04/06 10:52:46;;;;;;;11.98;10.55;;;9.90;99.90;;;;;;5053546;28;20258;-60
2023/04/06 10:55:14;;;;;;;11.10;10.00;;;9.90;99.90;;;;;;5053615;28;20638;-60
2023/04/06 10:57:40;;;;;;;11.93;10.13;;;9.90;99.90;;;;;;5053459;28;20221;-60
2023/04/06 11:00:07;;;;;;;11.40;10.32;;;9.90;99.90;;;;;;5053477;28;20207;-60
2023/04/06 11:02:40;;;;;;;11.98;10.02;;;9.90;99.90;;;;;;5053376;28;20214;-60
2023/04/06 11:05:06;;;;;;;12.55;10.23;;;10.00;99.90;;;;;;5053444;28;20160;-60
2023/04/06 11:07:32;;;;;;;11.90;10.70;;;10.00;99.90;;;;;;5052952;28;20628;-60
2023/04/06 11:09:58;;;;;;;12.18;10.98;;;10.10;99.90;;;;;;5053312;28;20180;-60
2023/04/06 11:12:25;;;;;;;11.98;10.65;;;10.20;99.90;;;;;;5053269;28;20207;-60
2023/04/06 11:14:54;;;;;;;13.02;11.73;;;10.20;99.90;;;;;;5053322;28;20179;-60
2023/04/06 11:17:26;;;;;;;14.10;11.55;;;10.20;99.90;;;;;;5053168;28;20214;-60
2023/04/06 11:19:52;;;;;;;12.32;11.13;;;10.30;99.90;;;;;;5053301;28;20206;-60
2023/04/06 11:22:17;;;;;;;13.60;12.20;;;10.20;99.90;;;;;;5053116;28;20207;-60
2023/04/06 11:24:43;;;;;;;13.48;11.25;;;10.00;99.90;;;;;;5052732;28;20280;-60
2023/04/06 11:27:09;;;;;;;13.55;11.55;;;10.00;99.90;;;;;;5053206;28;20636;-60
2023/04/06 11:29:37;;;;;;;13.68;12.27;;;10.00;99.90;;;;;;5053126;28;20174;-60
2023/04/06 11:32:05;;;;;;;13.68;12.38;;;10.00;99.90;;;;;;5053088;28;20197;-60
2023/04/06 11:34:36;;;;;;;13.65;11.57;;;10.10;99.90;;;;;;5053054;28;20275;-60
2023/04/06 11:37:05;;;;;;;14.23;12.73;;;10.10;99.90;;;;;;5053111;28;20156;-60
2023/04/06 11:39:37;;;;;;;13.30;11.98;;;10.00;99.90;;;;;;5053051;28;20317;-60
2023/04/06 11:42:03;;;;;;;13.45;12.05;;;9.90;99.90;;;;;;5053032;28;20168;-60
2023/04/06 11:44:31;;;;;;;12.93;11.18;;;10.00;99.90;;;;;;5053015;28;20190;-60
2023/04/06 11:46:57;;;;;;;13.23;11.75;;;9.90;99.90;;;;;;5052971;28;20233;-60
2023/04/06 11:49:28;;;;;;;12.57;11.32;;;10.00;99.90;;;;;;5052976;28;20187;-60
2023/04/06 11:51:54;;;;;;;13.50;11.73;;;10.10;99.90;;;;;;5053006;28;20246;-60
2023/04/06 11:54:30;;;;;;;13.27;11.98;;;10.00;99.90;;;;;;5052935;28;20258;-60
2023/04/06 11:56:56;;;;;;;12.82;11.52;;;10.10;99.90;;;;;;5051661;28;20523;-60
2023/04/06 11:59:22;;;;;;;12.45;11.18;;;10.10;99.90;;;;;;5052545;28;20187;-60
2023/04/06 12:01:48;;;;;;;12.50;10.98;;;10.20;99.90;;;;;;5052853;28;20263;-60
2023/04/06 12:04:14;;;;;;;12.45;11.18;;;10.20;99.90;;;;;;5052759;28;20734;-60
2023/04/06 12:06:40;;;;;;;12.18;10.82;;;10.20;99.90;;;;;;5052811;28;20539;-60
2023/04/06 12:09:06;;;;;;;11.05;9.98;;;10.20;99.90;;;;;;5052771;28;20174;-60
2023/04/06 12:11:31;;;;;;;10.57;9.57;;;10.00;99.90;;;;;;5053068;28;20639;-60
2023/04/06 12:13:59;;;;;;;11.20;10.10;;;10.00;99.90;;;;;;5052789;28;20183;-60
2023/04/06 12:16:24;;;;;;;11.38;10.27;;;10.20;99.90;;;;;;5052735;28;20249;-60
2023/04/06 12:18:51;;;;;;;9.77;8.80;;;10.20;99.90;;;;;;5052448;28;20621;-60
2023/04/06 12:21:16;;;;;;;10.75;9.63;;;10.40;99.90;;;;;;5056352;28;20254;-60
2023/04/06 12:23:42;;;;;;;9.63;8.73;;;10.40;99.90;;;;;;5056185;28;20372;-60
2023/04/06 12:26:08;;;;;;;8.98;8.07;;;10.50;99.90;;;;;;5056308;28;20176;-60
2023/04/06 12:28:33;;;;;;;9.82;8.85;;;10.50;99.90;;;;;;5056231;28;20176;-60
2023/04/06 12:31:00;;;;;;;9.52;8.63;;;10.50;99.90;;;;;;5056194;28;20690;-60
2023/04/06 12:33:25;;;;;;;9.93;8.77;;;10.40;99.90;;;;;;5056131;28;20183;-60
2023/04/06 12:35:51;;;;;;;8.93;8.13;;;10.50;99.90;;;;;;5056146;28;20539;-60